createdAt,value
2023-01-25T00:00:11.447Z,95.36
2023-01-25T00:02:39.864Z,94.94
2023-01-25T00:05:09.320Z,94.63
2023-01-25T00:07:39.137Z,94.40
2023-01-25T00:10:08.666Z,95.22
2023-01-25T00:12:37.091Z,95.25
2023-01-25T00:15:06.977Z,95.51
2023-01-25T00:17:35.568Z,95.96
2023-01-25T00:20:04.028Z,95.83
2023-01-25T00:22:32.538Z,95.27
2023-01-25T00:25:02.242Z,95.26
2023-01-25T00:27:30.624Z,94.67
2023-01-25T00:29:59.028Z,94.77
2023-01-25T00:32:43.635Z,94.78
2023-01-25T00:35:14.164Z,94.63
2023-01-25T00:37:45.683Z,95.21
2023-01-25T00:40:15.430Z,95.44
2023-01-25T00:42:43.866Z,95.49
2023-01-25T00:45:14.038Z,95.09
2023-01-25T00:47:42.463Z,94.95
2023-01-25T00:50:12.634Z,94.98
2023-01-25T00:52:42.031Z,94.96
2023-01-25T00:55:11.340Z,94.96
2023-01-25T00:57:41.113Z,95.52
2023-01-25T01:00:11.571Z,95.66
2023-01-25T01:02:40.045Z,95.70
2023-01-25T01:05:09.906Z,95.68
2023-01-25T01:07:38.837Z,95.00
2023-01-25T01:10:08.935Z,94.79
2023-01-25T01:12:37.369Z,94.40
2023-01-25T01:15:09.308Z,95.37
2023-01-25T01:17:37.835Z,95.88
2023-01-25T01:20:07.179Z,95.50
2023-01-25T01:22:35.721Z,95.61
2023-01-25T01:25:04.142Z,95.48
2023-01-25T01:27:32.485Z,95.20
2023-01-25T01:30:00.968Z,95.29
2023-01-25T01:32:30.879Z,95.18
2023-01-25T01:34:59.416Z,95.28
2023-01-25T01:37:27.787Z,95.76
2023-01-25T01:39:56.182Z,95.65
2023-01-25T01:42:24.629Z,96.08
2023-01-25T01:44:56.028Z,96.62
2023-01-25T01:47:32.642Z,96.33
2023-01-25T01:50:18.871Z,96.47
2023-01-25T01:52:48.089Z,96.17
2023-01-25T01:55:20.753Z,95.79
2023-01-25T01:57:53.704Z,95.53
2023-01-25T02:00:28.313Z,95.94
2023-01-25T02:02:59.676Z,95.72
2023-01-25T02:05:38.426Z,95.85
2023-01-25T02:08:08.038Z,95.53
2023-01-25T02:10:37.845Z,95.99
2023-01-25T02:13:06.220Z,96.20
2023-01-25T02:15:42.367Z,95.87
2023-01-25T02:18:13.154Z,96.70
2023-01-25T02:20:44.978Z,96.71
2023-01-25T02:23:25.299Z,96.75
2023-01-25T02:25:56.330Z,96.72
2023-01-25T02:28:30.614Z,96.24
2023-01-25T02:30:59.286Z,96.71
2023-01-25T02:33:29.380Z,96.44
2023-01-25T02:36:14.937Z,96.32
2023-01-25T02:38:51.824Z,96.63
2023-01-25T02:41:32.852Z,96.33
2023-01-25T02:44:02.105Z,96.62
2023-01-25T02:46:34.329Z,96.74
2023-01-25T02:49:05.903Z,97.44
2023-01-25T02:51:37.308Z,97.58
2023-01-25T02:54:08.816Z,97.79
2023-01-25T02:56:40.726Z,97.58
2023-01-25T02:59:13.284Z,96.91
2023-01-25T03:01:45.200Z,97.20
2023-01-25T03:04:14.568Z,97.57
2023-01-25T03:06:43.578Z,97.94
2023-01-25T03:09:13.151Z,98.00
2023-01-25T03:11:47.359Z,98.26
2023-01-25T03:14:17.835Z,98.13
2023-01-25T03:16:46.295Z,97.87
2023-01-25T03:19:14.960Z,98.02
2023-01-25T03:21:44.669Z,98.28
2023-01-25T03:24:13.304Z,98.15
2023-01-25T03:27:05.452Z,98.42
2023-01-25T03:29:52.867Z,98.62
2023-01-25T03:32:24.583Z,98.95
2023-01-25T03:34:53.882Z,99.01
2023-01-25T03:37:22.445Z,98.79
2023-01-25T03:39:51.467Z,99.05
2023-01-25T03:42:24.117Z,98.96
2023-01-25T03:44:57.600Z,99.35
2023-01-25T03:47:26.145Z,99.84
2023-01-25T03:49:54.791Z,99.90
2023-01-25T03:52:25.600Z,100.00
2023-01-25T03:54:54.246Z,99.74
2023-01-25T03:57:24.189Z,99.85
2023-01-25T03:59:57.803Z,100.00
2023-01-25T04:02:27.387Z,100.00
2023-01-25T04:04:57.137Z,100.00
2023-01-25T04:07:25.692Z,100.00
2023-01-25T04:09:54.050Z,100.00
2023-01-25T04:12:23.829Z,100.00
2023-01-25T04:14:52.186Z,100.00
2023-01-25T04:17:24.348Z,100.00
2023-01-25T04:20:00.844Z,100.00
2023-01-25T04:22:36.434Z,100.00
2023-01-25T04:25:08.023Z,100.00
2023-01-25T04:27:39.985Z,100.00
2023-01-25T04:30:13.578Z,100.00
2023-01-25T04:32:43.293Z,100.00
2023-01-25T04:35:21.851Z,100.00
2023-01-25T04:37:56.112Z,100.00
2023-01-25T04:40:27.929Z,100.00
2023-01-25T04:42:59.019Z,100.00
2023-01-25T04:45:28.008Z,100.00
2023-01-25T04:47:58.727Z,100.00
2023-01-25T04:50:27.694Z,100.00
2023-01-25T04:52:56.528Z,100.00
2023-01-25T04:55:25.715Z,100.00
2023-01-25T04:57:56.155Z,100.00
2023-01-25T05:00:25.893Z,100.00
2023-01-25T05:02:54.402Z,100.00
2023-01-25T05:05:24.052Z,100.00
2023-01-25T05:07:52.744Z,100.00
2023-01-25T05:10:21.391Z,100.00
2023-01-25T05:13:09.851Z,100.00
2023-01-25T05:15:40.629Z,100.00
2023-01-25T05:18:09.452Z,100.00
2023-01-25T05:20:37.933Z,100.00
2023-01-25T05:23:07.169Z,100.00
2023-01-25T05:25:53.238Z,100.00
2023-01-25T05:28:28.572Z,100.00
2023-01-25T05:31:18.694Z,100.00
2023-01-25T05:33:47.301Z,100.00
2023-01-25T05:36:15.722Z,100.00
2023-01-25T05:38:44.517Z,100.00
2023-01-25T05:41:14.588Z,100.00
2023-01-25T05:43:43.157Z,100.00
2023-01-25T05:46:11.637Z,100.00
2023-01-25T05:48:41.893Z,100.00
2023-01-25T05:51:11.545Z,100.00
2023-01-25T05:53:39.982Z,100.00
2023-01-25T05:56:11.323Z,100.00
2023-01-25T05:58:40.773Z,100.00
2023-01-25T06:01:09.869Z,100.00
2023-01-25T06:03:50.661Z,100.00
2023-01-25T06:06:19.614Z,100.00
2023-01-25T06:08:49.304Z,100.00
2023-01-25T06:11:20.495Z,100.00
2023-01-25T06:13:50.861Z,100.00
2023-01-25T06:16:20.638Z,100.00
2023-01-25T06:19:10.558Z,100.00
2023-01-25T06:22:02.096Z,100.00
2023-01-25T06:24:30.743Z,100.00
2023-01-25T06:26:59.121Z,100.00
2023-01-25T06:29:27.529Z,100.00
2023-01-25T06:31:57.206Z,100.00
2023-01-25T06:34:27.053Z,100.00
2023-01-25T06:36:55.736Z,100.00
2023-01-25T06:39:24.151Z,100.00
2023-01-25T06:41:52.496Z,100.00
2023-01-25T06:44:20.923Z,100.00
2023-01-25T06:46:49.365Z,100.00
2023-01-25T06:49:17.825Z,100.00
2023-01-25T06:51:47.638Z,100.00
2023-01-25T06:54:16.130Z,100.00
2023-01-25T06:56:44.714Z,100.00
2023-01-25T06:59:13.291Z,100.00
2023-01-25T07:01:41.712Z,100.00
2023-01-25T07:04:12.779Z,98.89
2023-01-25T07:06:41.624Z,98.89
2023-01-25T07:09:14.996Z,96.84
2023-01-25T07:11:43.424Z,96.12
2023-01-25T07:14:11.807Z,94.97
2023-01-25T07:16:40.202Z,96.17
2023-01-25T07:19:13.348Z,98.04
2023-01-25T07:21:42.242Z,99.40
2023-01-25T07:24:17.234Z,100.00
2023-01-25T07:26:45.877Z,100.00
2023-01-25T07:29:16.163Z,100.00
2023-01-25T07:31:44.697Z,100.00
2023-01-25T07:34:14.883Z,100.00
2023-01-25T07:36:44.714Z,100.00
2023-01-25T07:39:14.837Z,100.00
2023-01-25T07:41:43.322Z,100.00
2023-01-25T07:44:15.225Z,100.00
2023-01-25T07:46:50.370Z,100.00
2023-01-25T07:49:19.026Z,100.00
2023-01-25T07:51:47.840Z,100.00
2023-01-25T07:54:17.675Z,100.00
2023-01-25T07:56:46.132Z,100.00
2023-01-25T07:59:14.578Z,100.00
2023-01-25T08:01:42.996Z,100.00
2023-01-25T08:04:11.990Z,100.00
2023-01-25T08:06:40.671Z,100.00
2023-01-25T08:09:14.089Z,100.00
2023-01-25T08:11:44.613Z,100.00
2023-01-25T08:14:13.247Z,100.00
2023-01-25T08:16:41.948Z,100.00
2023-01-25T08:19:11.601Z,100.00
2023-01-25T08:21:40.144Z,100.00
2023-01-25T08:24:09.976Z,100.00
2023-01-25T08:26:38.981Z,100.00
2023-01-25T08:29:08.798Z,100.00
2023-01-25T08:31:38.286Z,100.00
2023-01-25T08:34:07.871Z,100.00
2023-01-25T08:36:36.291Z,100.00
2023-01-25T08:39:09.085Z,100.00
2023-01-25T08:41:37.991Z,100.00
2023-01-25T08:44:08.085Z,100.00
2023-01-25T08:46:36.900Z,100.00
2023-01-25T08:49:07.104Z,100.00
2023-01-25T08:51:35.584Z,100.00
2023-01-25T08:54:05.545Z,100.00
2023-01-25T08:56:34.483Z,100.00
2023-01-25T08:59:02.957Z,100.00
2023-01-25T09:01:32.885Z,100.00
2023-01-25T09:04:01.660Z,100.00
2023-01-25T09:06:30.365Z,100.00
2023-01-25T09:09:00.176Z,100.00
2023-01-25T09:11:28.796Z,100.00
2023-01-25T09:13:57.446Z,100.00
2023-01-25T09:16:30.686Z,100.00
2023-01-25T09:19:03.726Z,100.00
2023-01-25T09:21:35.917Z,100.00
2023-01-25T09:24:06.660Z,100.00
2023-01-25T09:26:38.761Z,100.00
2023-01-25T09:29:08.894Z,100.00
2023-01-25T09:31:41.094Z,100.00
2023-01-25T09:34:24.993Z,100.00
2023-01-25T09:36:53.621Z,100.00
2023-01-25T09:39:22.211Z,100.00
2023-01-25T09:42:21.540Z,100.00
2023-01-25T09:45:16.591Z,100.00
2023-01-25T09:47:52.493Z,100.00
2023-01-25T09:50:39.422Z,100.00
2023-01-25T09:53:32.131Z,100.00
2023-01-25T09:56:04.921Z,100.00
2023-01-25T09:58:37.044Z,100.00
2023-01-25T10:01:36.700Z,100.00
2023-01-25T10:04:15.994Z,100.00
2023-01-25T10:06:59.741Z,100.00
2023-01-25T10:09:43.867Z,100.00
2023-01-25T10:12:20.554Z,100.00
2023-01-25T10:14:49.946Z,100.00
2023-01-25T10:17:28.885Z,100.00
2023-01-25T10:20:24.706Z,100.00
2023-01-25T10:23:25.086Z,100.00
2023-01-25T10:25:59.410Z,100.00
2023-01-25T10:28:46.275Z,100.00
2023-01-25T10:31:20.299Z,100.00
2023-01-25T10:33:50.390Z,100.00
2023-01-25T10:36:24.878Z,100.00
2023-01-25T10:38:59.318Z,100.00
2023-01-25T10:41:34.278Z,100.00
2023-01-25T10:44:20.235Z,100.00
2023-01-25T10:46:54.964Z,100.00
2023-01-25T10:49:28.692Z,100.00
2023-01-25T10:51:57.544Z,100.00
2023-01-25T10:54:30.011Z,100.00
2023-01-25T10:56:59.289Z,100.00
2023-01-25T10:59:31.147Z,100.00
2023-01-25T11:02:38.123Z,100.00
2023-01-25T11:05:27.800Z,100.00
2023-01-25T11:07:56.837Z,100.00
2023-01-25T11:10:35.686Z,100.00
2023-01-25T11:13:29.176Z,100.00
2023-01-25T11:16:34.350Z,100.00
2023-01-25T11:19:04.000Z,100.00
2023-01-25T11:21:34.943Z,100.00
2023-01-25T11:24:18.144Z,100.00
2023-01-25T11:26:48.441Z,100.00
2023-01-25T11:29:19.236Z,100.00
2023-01-25T11:31:50.559Z,100.00
2023-01-25T11:34:22.205Z,100.00
2023-01-25T11:37:12.791Z,100.00
2023-01-25T11:39:55.429Z,100.00
2023-01-25T11:42:35.634Z,100.00
2023-01-25T11:45:28.078Z,100.00
2023-01-25T11:48:25.997Z,100.00
2023-01-25T11:51:03.983Z,100.00
2023-01-25T11:53:57.314Z,100.00
2023-01-25T11:56:40.938Z,100.00
2023-01-25T11:59:35.170Z,100.00
2023-01-25T12:02:46.809Z,100.00
2023-01-25T12:05:35.282Z,100.00
2023-01-25T12:08:23.363Z,100.00
2023-01-25T12:10:59.797Z,100.00
2023-01-25T12:13:41.223Z,100.00
2023-01-25T12:16:34.352Z,100.00
2023-01-25T12:19:20.606Z,100.00
2023-01-25T12:22:07.509Z,100.00
2023-01-25T12:24:48.279Z,100.00
2023-01-25T12:27:34.020Z,100.00
2023-01-25T12:30:14.862Z,100.00
2023-01-25T12:32:57.295Z,100.00
2023-01-25T12:35:35.759Z,100.00
2023-01-25T12:38:11.507Z,100.00
2023-01-25T12:40:52.031Z,100.00
2023-01-25T12:43:25.880Z,100.00
2023-01-25T12:45:56.366Z,100.00
2023-01-25T12:48:32.226Z,100.00
2023-01-25T12:51:01.759Z,100.00
2023-01-25T12:53:37.575Z,100.00
2023-01-25T12:56:08.197Z,100.00
2023-01-25T12:58:45.263Z,100.00
2023-01-25T13:01:24.108Z,100.00
2023-01-25T13:04:10.604Z,100.00
2023-01-25T13:06:50.465Z,100.00
2023-01-25T13:09:28.808Z,100.00
2023-01-25T13:11:57.264Z,100.00
2023-01-25T13:14:32.184Z,100.00
2023-01-25T13:17:24.401Z,100.00
2023-01-25T13:19:54.504Z,100.00
2023-01-25T13:22:58.751Z,100.00
2023-01-25T13:25:28.686Z,100.00
2023-01-25T13:28:45.567Z,100.00
2023-01-25T13:31:53.173Z,100.00
2023-01-25T13:34:58.942Z,100.00
2023-01-25T13:37:30.181Z,100.00
2023-01-25T13:40:05.949Z,100.00
2023-01-25T13:42:36.846Z,100.00
2023-01-25T13:45:18.655Z,100.00
2023-01-25T13:48:04.716Z,100.00
2023-01-25T13:50:38.144Z,100.00
2023-01-25T13:53:20.090Z,100.00
2023-01-25T13:55:51.471Z,100.00
2023-01-25T13:58:23.335Z,100.00
2023-01-25T14:00:55.978Z,100.00
2023-01-25T14:03:29.533Z,100.00
2023-01-25T14:06:02.692Z,100.00
2023-01-25T14:08:32.320Z,100.00
2023-01-25T14:11:01.184Z,100.00
2023-01-25T14:13:29.546Z,100.00
2023-01-25T14:16:00.730Z,100.00
2023-01-25T14:18:33.390Z,100.00
2023-01-25T14:21:19.156Z,100.00
2023-01-25T14:23:48.820Z,100.00
2023-01-25T14:26:24.679Z,100.00
2023-01-25T14:29:01.826Z,100.00
2023-01-25T14:31:38.846Z,100.00
2023-01-25T14:34:08.602Z,100.00
2023-01-25T14:36:38.367Z,100.00
2023-01-25T14:39:22.432Z,100.00
2023-01-25T14:42:00.856Z,100.00
2023-01-25T14:44:31.039Z,100.00
2023-01-25T14:47:31.183Z,100.00
2023-01-25T14:50:34.188Z,100.00
2023-01-25T14:53:15.241Z,100.00
2023-01-25T14:55:46.145Z,100.00
2023-01-25T14:58:19.078Z,100.00
2023-01-25T15:00:54.071Z,100.00
2023-01-25T15:03:23.105Z,100.00
2023-01-25T15:05:51.848Z,100.00
2023-01-25T15:08:31.895Z,100.00
2023-01-25T15:11:21.425Z,100.00
2023-01-25T15:13:50.093Z,100.00
2023-01-25T15:16:18.742Z,100.00
2023-01-25T15:18:51.026Z,100.00
2023-01-25T15:21:21.264Z,100.00
2023-01-25T15:23:51.615Z,100.00
2023-01-25T15:26:22.721Z,100.00
2023-01-25T15:28:53.786Z,100.00
2023-01-25T15:31:26.104Z,100.00
2023-01-25T15:33:55.401Z,100.00
2023-01-25T15:36:23.876Z,100.00
2023-01-25T15:38:53.648Z,100.00
2023-01-25T15:41:22.583Z,100.00
2023-01-25T15:43:52.168Z,100.00
2023-01-25T15:46:23.991Z,100.00
2023-01-25T15:48:53.469Z,100.00
2023-01-25T15:51:22.668Z,100.00
2023-01-25T15:53:51.144Z,100.00
2023-01-25T15:56:22.745Z,100.00
2023-01-25T15:58:54.177Z,100.00
2023-01-25T16:01:23.773Z,100.00
2023-01-25T16:03:52.155Z,100.00
2023-01-25T16:06:33.457Z,100.00
2023-01-25T16:09:04.361Z,100.00
2023-01-25T16:11:34.139Z,100.00
2023-01-25T16:14:02.570Z,100.00
2023-01-25T16:16:30.982Z,100.00
2023-01-25T16:18:59.452Z,100.00
2023-01-25T16:21:28.135Z,100.00
2023-01-25T16:23:56.563Z,100.00
2023-01-25T16:26:27.659Z,100.00
2023-01-25T16:28:57.557Z,100.00
2023-01-25T16:31:32.914Z,100.00
2023-01-25T16:34:02.589Z,100.00
2023-01-25T16:36:31.815Z,100.00
2023-01-25T16:39:10.396Z,100.00
2023-01-25T16:41:42.777Z,100.00
2023-01-25T16:44:13.122Z,100.00
2023-01-25T16:46:41.549Z,100.00
2023-01-25T16:49:16.586Z,100.00
2023-01-25T16:51:46.092Z,100.00
2023-01-25T16:54:14.504Z,100.00
2023-01-25T16:56:42.951Z,100.00
2023-01-25T16:59:13.473Z,100.00
2023-01-25T17:01:42.058Z,100.00
2023-01-25T17:04:11.648Z,100.00
2023-01-25T17:06:42.951Z,100.00
2023-01-25T17:09:23.071Z,100.00
2023-01-25T17:11:52.468Z,100.00
2023-01-25T17:14:22.921Z,100.00
2023-01-25T17:16:55.780Z,100.00
2023-01-25T17:19:25.144Z,100.00
2023-01-25T17:21:53.576Z,100.00
2023-01-25T17:24:22.793Z,100.00
2023-01-25T17:26:51.862Z,100.00
2023-01-25T17:29:21.897Z,100.00
2023-01-25T17:31:50.520Z,100.00
2023-01-25T17:34:21.927Z,100.00
2023-01-25T17:36:51.265Z,100.00
2023-01-25T17:39:21.066Z,100.00
2023-01-25T17:41:51.077Z,100.00
2023-01-25T17:44:26.758Z,100.00
2023-01-25T17:46:55.301Z,100.00
2023-01-25T17:49:25.417Z,100.00
2023-01-25T17:51:54.307Z,100.00
2023-01-25T17:54:23.020Z,100.00
2023-01-25T17:57:02.641Z,100.00
2023-01-25T17:59:35.361Z,100.00
2023-01-25T18:02:06.493Z,100.00
2023-01-25T18:04:35.978Z,100.00
2023-01-25T18:07:04.912Z,100.00
2023-01-25T18:09:35.771Z,100.00
2023-01-25T18:12:04.476Z,100.00
2023-01-25T18:14:35.052Z,100.00
2023-01-25T18:17:04.195Z,100.00
2023-01-25T18:19:33.041Z,100.00
2023-01-25T18:22:01.598Z,100.00
2023-01-25T18:24:34.542Z,100.00
2023-01-25T18:27:08.287Z,100.00
2023-01-25T18:29:54.333Z,100.00
2023-01-25T18:32:23.438Z,100.00
2023-01-25T18:34:52.347Z,100.00
2023-01-25T18:37:23.715Z,100.00
2023-01-25T18:39:54.515Z,100.00
2023-01-25T18:42:25.966Z,100.00
2023-01-25T18:44:56.183Z,100.00
2023-01-25T18:47:25.197Z,100.00
2023-01-25T18:49:54.707Z,100.00
2023-01-25T18:52:25.143Z,100.00
2023-01-25T18:54:53.809Z,100.00
2023-01-25T18:57:22.380Z,100.00
2023-01-25T18:59:51.482Z,100.00
2023-01-25T19:02:22.958Z,100.00
2023-01-25T19:04:51.779Z,100.00
2023-01-25T19:07:22.715Z,100.00
2023-01-25T19:09:51.263Z,100.00
2023-01-25T19:12:19.763Z,100.00
2023-01-25T19:14:48.341Z,100.00
2023-01-25T19:17:16.972Z,100.00
2023-01-25T19:19:51.047Z,100.00
2023-01-25T19:22:25.641Z,100.00
2023-01-25T19:24:54.098Z,100.00
2023-01-25T19:27:29.710Z,100.00
2023-01-25T19:30:05.081Z,100.00
2023-01-25T19:32:33.820Z,100.00
2023-01-25T19:35:09.428Z,100.00
2023-01-25T19:37:46.041Z,100.00
2023-01-25T19:40:19.711Z,100.00
2023-01-25T19:42:58.095Z,100.00
2023-01-25T19:45:26.845Z,100.00
2023-01-25T19:48:13.487Z,100.00
2023-01-25T19:50:51.037Z,100.00
2023-01-25T19:53:19.492Z,100.00
2023-01-25T19:55:47.896Z,100.00
2023-01-25T19:58:21.067Z,100.00
2023-01-25T20:00:50.043Z,100.00
2023-01-25T20:03:20.453Z,100.00
2023-01-25T20:05:59.207Z,100.00
2023-01-25T20:08:30.764Z,100.00
2023-01-25T20:11:00.804Z,100.00
2023-01-25T20:13:35.280Z,100.00
2023-01-25T20:16:04.040Z,100.00
2023-01-25T20:18:35.153Z,100.00
2023-01-25T20:21:11.028Z,100.00
2023-01-25T20:23:53.656Z,100.00
2023-01-25T20:26:25.456Z,100.00
2023-01-25T20:28:56.116Z,100.00
2023-01-25T20:31:31.949Z,100.00
2023-01-25T20:34:03.593Z,100.00
2023-01-25T20:36:37.948Z,100.00
2023-01-25T20:39:12.860Z,100.00
2023-01-25T20:41:41.330Z,100.00
2023-01-25T20:44:11.304Z,100.00
2023-01-25T20:46:41.689Z,100.00
2023-01-25T20:49:15.232Z,100.00
2023-01-25T20:51:47.184Z,100.00
2023-01-25T20:54:18.327Z,100.00
2023-01-25T20:56:54.473Z,100.00
2023-01-25T20:59:25.413Z,100.00
2023-01-25T21:01:57.584Z,100.00
2023-01-25T21:04:26.325Z,100.00
2023-01-25T21:07:05.188Z,100.00
2023-01-25T21:09:35.827Z,100.00
2023-01-25T21:12:17.798Z,100.00
2023-01-25T21:14:52.295Z,100.00
2023-01-25T21:17:23.524Z,100.00
2023-01-25T21:20:30.259Z,100.00
2023-01-25T21:23:16.624Z,100.00
2023-01-25T21:25:50.048Z,100.00
2023-01-25T21:28:21.481Z,100.00
2023-01-25T21:30:57.504Z,100.00
2023-01-25T21:33:26.407Z,100.00
2023-01-25T21:36:08.518Z,100.00
2023-01-25T21:38:42.835Z,100.00
2023-01-25T21:41:13.792Z,100.00
2023-01-25T21:43:59.469Z,100.00
2023-01-25T21:46:29.771Z,100.00
2023-01-25T21:49:17.507Z,100.00
2023-01-25T21:51:49.548Z,100.00
2023-01-25T21:54:22.291Z,100.00
2023-01-25T21:56:58.425Z,100.00
2023-01-25T21:59:27.003Z,100.00
2023-01-25T22:01:56.683Z,100.00
2023-01-25T22:04:29.220Z,100.00
2023-01-25T22:07:00.052Z,100.00
2023-01-25T22:09:30.364Z,100.00
2023-01-25T22:12:02.012Z,100.00
2023-01-25T22:14:30.623Z,100.00
2023-01-25T22:16:59.001Z,100.00
2023-01-25T22:19:27.499Z,100.00
2023-01-25T22:21:55.860Z,100.00
2023-01-25T22:24:24.721Z,100.00
2023-01-25T22:27:07.774Z,100.00
2023-01-25T22:29:36.321Z,100.00
2023-01-25T22:32:05.180Z,100.00
2023-01-25T22:34:45.032Z,100.00
2023-01-25T22:37:13.540Z,100.00
2023-01-25T22:39:42.146Z,100.00
2023-01-25T22:42:11.943Z,100.00
2023-01-25T22:44:40.323Z,100.00
2023-01-25T22:47:08.707Z,100.00
2023-01-25T22:49:37.121Z,100.00
2023-01-25T22:52:05.888Z,100.00
2023-01-25T22:54:34.260Z,100.00
2023-01-25T22:57:02.622Z,100.00
2023-01-25T22:59:38.537Z,100.00
2023-01-25T23:02:06.916Z,100.00
2023-01-25T23:04:35.377Z,100.00
2023-01-25T23:07:12.601Z,100.00
2023-01-25T23:09:41.900Z,100.00
2023-01-25T23:12:10.338Z,100.00
2023-01-25T23:14:51.373Z,100.00
2023-01-25T23:17:45.583Z,100.00
2023-01-25T23:20:14.810Z,100.00
2023-01-25T23:22:43.248Z,100.00
2023-01-25T23:25:13.151Z,100.00
2023-01-25T23:27:42.023Z,100.00
2023-01-25T23:30:12.664Z,100.00
2023-01-25T23:32:46.052Z,100.00
2023-01-25T23:35:14.745Z,100.00
2023-01-25T23:37:43.333Z,100.00
2023-01-25T23:40:13.956Z,100.00
2023-01-25T23:42:43.042Z,100.00
2023-01-25T23:45:12.983Z,100.00
2023-01-25T23:47:42.967Z,100.00
2023-01-25T23:50:13.452Z,100.00
2023-01-25T23:52:42.101Z,100.00
2023-01-25T23:55:11.496Z,100.00
2023-01-25T23:57:40.110Z,100.00
